Aviation Digital Data Service (ADDS)

Output produced by TAFs form (0239 UTC 25 August 2016)
found at http://www.aviationweather.gov/adds/tafs/
 
KRIC 242338Z 2500/2524 VRB03KT P6SM FEW050 
     FM250200 VRB03KT P6SM SKC 
     FM251300 20004KT P6SM SKC 
     FM251700 20006KT P6SM SCT035